Home > Products > Valid Products > MTR

000
SAUS44 KMRX 061455
MTRGDP
METAR KGDP 061451Z AUTO 25021KT 10SM OVC110 22/15 A3017 RMK AO2 PK
WND 24031/1410 SLP139 T02170150 51017





000
SAUS44 KMRX 061356
MTRGDP
METAR KGDP 061351Z AUTO 24020G31KT 10SM FEW110 22/15 A3014 RMK AO2
PK WND 24032/1331 SLP126 T02170150





000
SAUS44 KMRX 061356
MTRGDP
METAR KGDP 061351Z AUTO 24020G31KT 10SM FEW110 22/15 A3014 RMK AO2
PK WND 24032/1331 SLP126 T02170150





000
SAUS44 KMRX 061255
MTRGDP
METAR KGDP 061251Z AUTO 23023KT 10SM CLR 19/14 A3014 RMK AO2 PK WND
24029/1233 SLP119 T01940144





000
SAUS44 KMRX 061255
MTRGDP
METAR KGDP 061251Z AUTO 23023KT 10SM CLR 19/14 A3014 RMK AO2 PK WND
24029/1233 SLP119 T01940144





000
SAUS44 KMRX 061157
MTRGDP
METAR KGDP 061151Z AUTO 24023G29KT 10SM CLR 20/14 A3011 RMK AO2 PK
WND 25030/1132 SLP107 70002 T02000144 10211 20183 55003





000
SAUS44 KMRX 061157
MTRGDP
METAR KGDP 061151Z AUTO 24023G29KT 10SM CLR 20/14 A3011 RMK AO2 PK
WND 25030/1132 SLP107 70002 T02000144 10211 20183 55003





000
SAUS44 KMRX 061056
MTRGDP
METAR KGDP 061051Z AUTO 24020G24KT 10SM CLR 19/15 A3010 RMK AO2 PK
WND 25029/1019 SLP106 T01940150





000
SAUS44 KMRX 060955
MTRGDP
METAR KGDP 060951Z AUTO 23017KT 10SM CLR 19/16 A3011 RMK AO2 SLP111
T01890161





000
SAUS44 KMRX 060855
MTRGDP
METAR KGDP 060851Z AUTO 24018KT 10SM BKN110 19/16 A3012 RMK AO2
SLP110 T01940161 56009





000
SAUS44 KMRX 060755
MTRGDP
METAR KGDP 060751Z AUTO 25019KT 10SM CLR 20/16 A3012 RMK AO2 SLP107
T02000156





000
SAUS44 KMRX 060655
MTRGDP
METAR KGDP 060651Z AUTO 25017KT 10SM CLR 21/16 A3014 RMK AO2 SLP113
T02060156 403280200





000
SAUS44 KMRX 060655
MTRGDP
METAR KGDP 060651Z AUTO 25017KT 10SM CLR 21/16 A3014 RMK AO2 SLP113
T02060156 403280200





000
SAUS44 KMRX 060556
MTRGDP
METAR KGDP 060551Z AUTO 23013KT 10SM CLR 21/16 A3015 RMK AO2 SLP117
60002 T02060161 10289 20200 50001





000
SAUS44 KMRX 060556
MTRGDP
METAR KGDP 060551Z AUTO 23013KT 10SM CLR 21/16 A3015 RMK AO2 SLP117
60002 T02060161 10289 20200 50001





000
SAUS44 KMRX 060455
MTRGDP
METAR KGDP 060451Z AUTO 24007KT 10SM SCT120 23/14 A3016 RMK AO2
RAE20 SLP122 P0000 T02280144





000
SAUS44 KMRX 060355
MTRGDP
METAR KGDP 060351Z AUTO 00000KT 9SM -RA OVC110 23/15 A3015 RMK AO2
SLP125 P0001 T02280150





000
SAUS44 KMRX 060255
MTRGDP
METAR KGDP 060251Z AUTO 26017KT 10SM -RA OVC110 21/17 A3015 RMK AO2
SLP127 P0001 60001 T02110172 53013





000
SAUS44 KMRX 060155
MTRGDP
METAR KGDP 060151Z AUTO 24018KT 10SM -RA FEW040 BKN120 24/15 A3013
RMK AO2 RAB46 SLP119 P0000 T02390150





000
SAUS44 KMRX 060155
MTRGDP
METAR KGDP 060151Z AUTO 24018KT 10SM -RA FEW040 BKN120 24/15 A3013
RMK AO2 RAB46 SLP119 P0000 T02390150





000
SAUS44 KMRX 060057 COR
MTRGDP
METAR KGDP 060051Z AUTO 24012KT 10SM BKN075 OVC090 28/14 A3010 RMK
AO2 RAE01 SLP105 P0000 T02780139





000
SAUS44 KMRX 060056 COR
MTRGDP
METAR KGDP 060051Z AUTO 24012KT 10SM BKN075 OVC090 28/14 A3010 RMK
AO2 RAE01 SLP105 P0000 T02780139





000
SAUS44 KMRX 060055
MTRGDP
METAR KGDP 060051Z AUTO 24012KT 10SM BKN075 OVC090 28/14 A3010 RMK
AO2 RAE01 SLP105 P0000 T02780139





000
SAUS44 KMRX 052355
MTRGDP
METAR KGDP 052351Z AUTO 24010KT 10SM -RA BKN095 BKN110 28/15 A3010
RMK AO2 RAB42 SLP105 P0000 60000 T02830150 10328 20267 56011





000
SAUS44 KMRX 052255
MTRGDP
METAR KGDP 052251Z AUTO 24006KT 10SM CLR 28/13 A3011 RMK AO2 SLP110
T02780128





000
SAUS44 KMRX 052155
MTRGDP
METAR KGDP 052151Z AUTO 24010KT 10SM SCT100 28/13 A3012 RMK AO2
SLP111 T02780128





000
SAUS44 KMRX 052055
MTRGDP
METAR KGDP 052051Z AUTO 26009KT 10SM SCT095 OVC110 29/14 A3014 RMK
AO2 PK WND 24027/2019 RAB32E50 SLP116 P0000 60000 T02890144 55012





000
SAUS44 KMRX 051955
MTRGDP
METAR KGDP 051951Z AUTO 23012G18KT 10SM CLR 32/14 A3014 RMK AO2
SLP112 T03170139





000
SAUS44 KMRX 051955
MTRGDP
METAR KGDP 051951Z AUTO 23012G18KT 10SM CLR 32/14 A3014 RMK AO2
SLP112 T03170139





000
SAUS44 KMRX 051855
MTRGDP
METAR KGDP 051851Z AUTO 24014G18KT 10SM SCT050 31/15 A3016 RMK AO2
SLP121 T03060150





000
SAUS44 KMRX 051755
MTRGDP
METAR KGDP 051751Z AUTO 25015G19KT 10SM CLR 30/16 A3018 RMK AO2
SLP128 T03000161 10300 20200 58003





000
SAUS44 KMRX 051755
MTRGDP
METAR KGDP 051751Z AUTO 25015G19KT 10SM CLR 30/16 A3018 RMK AO2
SLP128 T03000161 10300 20200 58003





000
SAUS44 KMRX 051655
MTRGDP
METAR KGDP 051651Z AUTO 24013G20KT 10SM CLR 27/16 A3018 RMK AO2
SLP133 T02670156





000
SAUS44 KMRX 051555
MTRGDP
METAR KGDP 051551Z AUTO 23014KT 9SM CLR 24/16 A3019 RMK AO2 SLP138
T02440161





000
SAUS44 KMRX 051455
MTRGDP
METAR KGDP 051451Z AUTO 23011KT 9SM CLR 24/17 A3019 RMK AO2 SLP135
T02390167 53008





000
SAUS44 KMRX 051355
MTRGDP
METAR KGDP 051351Z AUTO 24010KT 8SM CLR 21/16 A3018 RMK AO2 SLP136
T02110161





000
SAUS44 KMRX 051355
MTRGDP
METAR KGDP 051351Z AUTO 24010KT 8SM CLR 21/16 A3018 RMK AO2 SLP136
T02110161





000
SAUS44 KMRX 051255
MTRGDP
METAR KGDP 051251Z AUTO 16004KT 8SM CLR 21/16 A3017 RMK AO2 SLP130
T02060161





000
SAUS44 KMRX 051155
MTRGDP
METAR KGDP 051151Z AUTO 19004KT 8SM CLR 20/16 A3016 RMK AO2 SLP127
T02000156 10211 20200 53003





000
SAUS44 KMRX 051055
MTRGDP
METAR KGDP 051051Z AUTO 24009KT 9SM CLR 20/16 A3015 RMK AO2 SLP122
T02000161





000
SAUS44 KMRX 051055
MTRGDP
METAR KGDP 051051Z AUTO 24009KT 9SM CLR 20/16 A3015 RMK AO2 SLP122
T02000161





000
SAUS44 KMRX 050955
MTRGDP
METAR KGDP 050951Z AUTO 22005KT 9SM CLR 21/16 A3015 RMK AO2 SLP121
T02060156





000
SAUS44 KMRX 050855
MTRGDP
METAR KGDP 050851Z AUTO 00000KT 9SM CLR 21/16 A3015 RMK AO2 SLP120
T02110156 58003





000
SAUS44 KMRX 050855
MTRGDP
METAR KGDP 050851Z AUTO 00000KT 9SM CLR 21/16 A3015 RMK AO2 SLP120
T02110156 58003





000
SAUS44 KMRX 050756
MTRGDP
METAR KGDP 050751Z AUTO 04011KT 9SM FEW050 21/16 A3016 RMK AO2
SLP123 T02060156





000
SAUS44 KMRX 050655
MTRGDP
METAR KGDP 050651Z AUTO 06012KT 9SM BKN043 21/16 A3017 RMK AO2
SLP129 T02060156 402890172





000
SAUS44 KMRX 050655
MTRGDP
METAR KGDP 050651Z AUTO 06012KT 9SM BKN043 21/16 A3017 RMK AO2
SLP129 T02060156 402890172





000
SAUS44 KMRX 050555
MTRGDP
METAR KGDP 050551Z AUTO 05014KT 9SM CLR 21/16 A3016 RMK AO2 SLP128
T02110156 10278 20211 50007





000
SAUS44 KMRX 050555
MTRGDP
METAR KGDP 050551Z AUTO 05014KT 9SM CLR 21/16 A3016 RMK AO2 SLP128
T02110156 10278 20211 50007





000
SAUS44 KMRX 050455
MTRGDP
METAR KGDP 050451Z AUTO 05015KT 9SM CLR 22/15 A3017 RMK AO2 SLP132
T02170150





000
SAUS44 KMRX 050355
MTRGDP
METAR KGDP 050351Z AUTO 07013KT 9SM CLR 23/14 A3016 RMK AO2 SLP128
T02280144





000
SAUS44 KMRX 050355
MTRGDP
METAR KGDP 050351Z AUTO 07013KT 9SM CLR 23/14 A3016 RMK AO2 SLP128
T02280144





000
SAUS44 KMRX 050255
MTRGDP
METAR KGDP 050251Z AUTO 08019KT 10SM CLR 24/14 A3014 RMK AO2 SLP121
T02440139 53011





000
SAUS44 KMRX 050255
MTRGDP
METAR KGDP 050251Z AUTO 08019KT 10SM CLR 24/14 A3014 RMK AO2 SLP121
T02440139 53011





000
SAUS44 KMRX 050155
MTRGDP
METAR KGDP 050151Z AUTO 08017KT 9SM CLR 26/13 A3012 RMK AO2 SLP114
T02560128





000
SAUS44 KMRX 050155
MTRGDP
METAR KGDP 050151Z AUTO 08017KT 9SM CLR 26/13 A3012 RMK AO2 SLP114
T02560128





000
SAUS44 KMRX 050056
MTRGDP
METAR KGDP 050051Z AUTO 08018KT 9SM FEW060 27/12 A3010 RMK AO2 PK
WND 07026/2355 SLP113 T02670122





000
SAUS44 KMRX 042355
MTRGDP
METAR KGDP 042351Z AUTO 08013G23KT 9SM CLR 28/12 A3010 RMK AO2
SLP110 T02780117 10289 20256 55010





000
SAUS44 KMRX 042355
MTRGDP
METAR KGDP 042351Z AUTO 08013G23KT 9SM CLR 28/12 A3010 RMK AO2
SLP110 T02780117 10289 20256 55010





000
SAUS44 KMRX 042255
MTRGDP
METAR KGDP 042251Z AUTO 08018G24KT 9SM CLR 28/12 A3009 RMK AO2 PK
WND 07026/2152 SLP104 T02830122





000
SAUS44 KMRX 042255
MTRGDP
METAR KGDP 042251Z AUTO 08018G24KT 9SM CLR 28/12 A3009 RMK AO2 PK
WND 07026/2152 SLP104 T02830122





000
SAUS44 KMRX 042155
MTRGDP
METAR KGDP 042151Z AUTO 08018G25KT 9SM CLR 28/13 A3011 RMK AO2 PK
WND 08027/2139 SLP108 T02830128





000
SAUS44 KMRX 042155
MTRGDP
METAR KGDP 042151Z AUTO 08018G25KT 9SM CLR 28/13 A3011 RMK AO2 PK
WND 08027/2139 SLP108 T02830128





000
SAUS44 KMRX 042055
MTRGDP
METAR KGDP 042051Z AUTO 08014KT 10SM CLR 28/13 A3013 RMK AO2 PK WND
08031/2018 SLP116 T02830128 57013





000
SAUS44 KMRX 042055
MTRGDP
METAR KGDP 042051Z AUTO 08014KT 10SM CLR 28/13 A3013 RMK AO2 PK WND
08031/2018 SLP116 T02830128 57013





000
SAUS44 KMRX 041955
MTRGDP
METAR KGDP 041951Z AUTO 07017KT 10SM FEW050 28/13 A3014 RMK AO2
SLP121 T02780128





000
SAUS44 KMRX 041855
MTRGDP
METAR KGDP 041851Z AUTO 08015KT 10SM CLR 27/13 A3017 RMK AO2 SLP131
T02670128





000
SAUS44 KMRX 041655
MTRGDP
METAR KGDP 041651Z AUTO 07015G19KT 9SM CLR 25/14 A3019 RMK AO2
SLP139 T02500139





000
SAUS44 KMRX 041555
MTRGDP
METAR KGDP 041551Z AUTO 05013G18KT 9SM CLR 24/15 A3019 RMK AO2
SLP141 T02390150





000
SAUS44 KMRX 041455
MTRGDP
METAR KGDP 041451Z AUTO 06011KT 8SM CLR 22/16 A3019 RMK AO2 SLP143
T02170156 51010





000
SAUS44 KMRX 041356
MTRGDP
METAR KGDP 041351Z AUTO 05010KT 7SM FEW009 21/17 A3018 RMK AO2
SLP144 T02060167





000
SAUS44 KMRX 041346
MTRGDP
SPECI KGDP 041343Z AUTO 05011KT 7SM FEW009 FEW110 20/17 A3018 RMK
AO2 T02000167





000
SAUS44 KMRX 041346
MTRGDP
SPECI KGDP 041343Z AUTO 05011KT 7SM FEW009 FEW110 20/17 A3018 RMK
AO2 T02000167





000
SAUS44 KMRX 041255
MTRGDP
METAR KGDP 041251Z AUTO 05014KT 6SM BR CLR 18/16 A3017 RMK AO2
SLP143 T01780161





000
SAUS44 KMRX 041255
MTRGDP
METAR KGDP 041251Z AUTO 05014KT 6SM BR CLR 18/16 A3017 RMK AO2
SLP143 T01780161





000
SAUS44 KMRX 041155
MTRGDP
METAR KGDP 041151Z AUTO 05018KT 7SM CLR 18/16 A3015 RMK AO2 SLP136
T01780156 10211 20178 53001





000
SAUS44 KMRX 041055
MTRGDP
METAR KGDP 041051Z AUTO 05015KT 9SM FEW110 19/16 A3014 RMK AO2
SLP133 T01890156





000
SAUS44 KMRX 040955
MTRGDP
METAR KGDP 040951Z AUTO 06015KT 9SM FEW110 19/16 A3015 RMK AO2
SLP131 T01940156





000
SAUS44 KMRX 040855
MTRGDP
METAR KGDP 040851Z AUTO 05018KT 9SM OVC110 20/16 A3015 RMK AO2
SLP125 T02000156 56008





000
SAUS44 KMRX 040855
MTRGDP
METAR KGDP 040851Z AUTO 05018KT 9SM OVC110 20/16 A3015 RMK AO2
SLP125 T02000156 56008





000
SAUS44 KMRX 040754
MTRGDP
METAR KGDP 040751Z AUTO 04021KT 9SM BKN110 20/16 A3015 RMK AO2 PK
WND 04029/0717 SLP124 T02000156





000
SAUS44 KMRX 040754
MTRGDP
METAR KGDP 040751Z AUTO 04021KT 9SM BKN110 20/16 A3015 RMK AO2 PK
WND 04029/0717 SLP124 T02000156





000
SAUS44 KMRX 040655
MTRGDP
METAR KGDP 040651Z AUTO 04021KT 10SM BKN110 21/15 A3016 RMK AO2
SLP126 T02060150 402830189





000
SAUS44 KMRX 040555
MTRGDP
METAR KGDP 040551Z AUTO 05016KT 10SM CLR 21/15 A3018 RMK AO2 SLP131
T02110150 10244 20206 50013





000
SAUS44 KMRX 040455
MTRGDP
METAR KGDP 040451Z AUTO 06014KT 10SM CLR 21/15 A3018 RMK AO2 SLP136
T02110150





000
SAUS44 KMRX 040355
MTRGDP
METAR KGDP 040351Z AUTO 04014KT 10SM FEW095 22/14 A3016 RMK AO2
SLP130 T02170144





000
SAUS44 KMRX 040355
MTRGDP
METAR KGDP 040351Z AUTO 04014KT 10SM FEW095 22/14 A3016 RMK AO2
SLP130 T02170144





000
SAUS44 KMRX 040255
MTRGDP
METAR KGDP 040251Z AUTO 04018KT 10SM FEW120 22/14 A3013 RMK AO2
SLP124 T02220144 53007





000
SAUS44 KMRX 040155
MTRGDP
METAR KGDP 040151Z AUTO 04022KT 9SM BKN120 23/14 A3012 RMK AO2 PK
WND 04027/0146 SLP120 T02280144





000
SAUS44 KMRX 040055
MTRGDP
METAR KGDP 040051Z AUTO 04021KT 9SM CLR 23/15 A3011 RMK AO2 PK WND
04030/0014 SLP119 T02330150





000
SAUS44 KMRX 040055
MTRGDP
METAR KGDP 040051Z AUTO 04021KT 9SM CLR 23/15 A3011 RMK AO2 PK WND
04030/0014 SLP119 T02330150





000
SAUS44 KMRX 032355
MTRGDP
METAR KGDP 032351Z AUTO 06019G24KT 9SM FEW090 SCT110 24/15 A3011 RMK
AO2 PK WND 04028/2301 RAE2252 SLP115 P0000 60000 T02440150 10278
20217 58009





000
SAUS44 KMRX 032254
MTRGDP
METAR KGDP 032251Z AUTO 05021KT 10SM -RA OVC100 23/15 A3013 RMK AO2
PK WND 04027/2244 RAB06 SLP124 P0000 T02280150





000
SAUS44 KMRX 032155
MTRGDP
METAR KGDP 032151Z AUTO 04022KT 10SM OVC085 24/14 A3015 RMK AO2 PK
WND 04029/2107 SLP128 T02440139





000
SAUS44 KMRX 032155
MTRGDP
METAR KGDP 032151Z AUTO 04022KT 10SM OVC085 24/14 A3015 RMK AO2 PK
WND 04029/2107 SLP128 T02440139





000
SAUS44 KMRX 032054
MTRGDP
METAR KGDP 032051Z AUTO 05022G27KT 10SM FEW055 BKN085 OVC100 27/13
A3014 RMK AO2 PK WND 04032/1952 SLP122 T02670128 58013





000
SAUS44 KMRX 032054
MTRGDP
METAR KGDP 032051Z AUTO 05022G27KT 10SM FEW055 BKN085 OVC100 27/13
A3014 RMK AO2 PK WND 04032/1952 SLP122 T02670128 58013





000
SAUS44 KMRX 031955
MTRGDP
METAR KGDP 031951Z AUTO 06022G31KT 10SM FEW047 BKN095 BKN120 27/14
A3016 RMK AO2 PK WND 05034/1900 SLP126 T02720144





000
SAUS44 KMRX 031955
MTRGDP
METAR KGDP 031951Z AUTO 06022G31KT 10SM FEW047 BKN095 BKN120 27/14
A3016 RMK AO2 PK WND 05034/1900 SLP126 T02720144





000
SAUS44 KMRX 031855
MTRGDP
METAR KGDP 031851Z AUTO 05024G33KT 10SM FEW043 SCT055 SCT100 27/14
A3017 RMK AO2 PK WND 05035/1836 SLP131 T02720144





000
SAUS44 KMRX 031754
MTRGDP
METAR KGDP 031751Z AUTO 06018G31KT 10SM SCT043 BKN055 BKN100 27/15
A3019 RMK AO2 PK WND 07031/1748 SLP132 T02720150 10283 20189 50003





000
SAUS44 KMRX 031655
MTRGDP
METAR KGDP 031651Z AUTO 06017G26KT 9SM OVC110 25/16 A3019 RMK AO2 PK
WND 04026/1649 SLP135 T02500161





000
SAUS44 KMRX 031655
MTRGDP
METAR KGDP 031651Z AUTO 06017G26KT 9SM OVC110 25/16 A3019 RMK AO2 PK
WND 04026/1649 SLP135 T02500161





000
SAUS44 KMRX 031554
MTRGDP
METAR KGDP 031551Z AUTO 05019KT 9SM BKN110 24/16 A3018 RMK AO2
SLP134 T02390161





    US Dept of Commerce
    National Oceanic and Atmospheric Administration
    National Weather Service
    1325 East West Highway
    Silver Spring, MD 20910
    Page Author: NWS Internet Services Team
Disclaimer
Information Quality
Credits
Glossary
Privacy Policy
Freedom of Information Act (FOIA)
About Us
Career Opportunities